Hillcrest, North Carolina
Current Conditions -  °F | °C
As of 7:15 PM on Tuesday 25 Nov 2014 (Local Time) from KTNB Reporting Station
Clear Clear  
Wind Chill: 39°   Ceiling: Unl
Heat Index: 39°   Visibility: 10mi
Dew Point: 28°   Wind: 0mph
Humidity: 66%   Direction: NA
Pressure: 30.07"   Gusts: NA
Location:  36.2085°N, 81.6605°W
Report Text: KTNB 260015Z AUTO 00000KT 10SM CLR 04/M02 A3007 RMK AO2 T00391020
Loading
Personal Weather Stations






























Interactive Weather Map New forecast layout! Learn more

10-Day Weather Forecast

Advertisements
Track Severe Weather on mobile